Time;durP1;ratioP1;P1;durP2;ratioP2;P2;SDS_P1;SDS_P2;PMS_P1;PMS_P2;Temp;Humidity;BMP_temperature;BMP_pressure;BME280_temperature;BME280_humidity;BME280_pressure;Samples;Min_cycle;Max_cycle;Signal;HPM_P1;HPM_P2
2022/08/23 00:01:21;;;;;;;308.30;173.77;;;;;;;;;;4989752;28;20228;-53
2022/08/23 00:03:48;;;;;;;313.02;176.05;;;;;;;;;;4991119;28;20582;-53
2022/08/23 00:06:14;;;;;;;318.48;175.55;;;;;;;;;;4995468;28;20656;-53
2022/08/23 00:08:40;;;;;;;322.75;175.98;;;;;;;;;;4989698;28;20217;-53
2022/08/23 00:11:23;;;;;;;315.75;176.15;;;;;;;;;;4995251;28;20230;-52
2022/08/23 00:13:49;;;;;;;286.38;156.90;;;;;;;;;;4987167;28;20229;-53
2022/08/23 00:16:15;;;;;;;312.10;165.87;;;;;;;;;;4989660;28;20233;-53
2022/08/23 00:18:41;;;;;;;292.50;158.90;;;;;;;;;;4989639;28;20193;-53
2022/08/23 00:21:07;;;;;;;314.02;169.55;;;;;;;;;;4989645;28;20634;-53
2022/08/23 00:23:33;;;;;;;312.83;169.20;;;;;;;;;;4988424;28;20221;-53
2022/08/23 00:26:02;;;;;;;304.60;164.05;;;;;;;;;;4988341;28;20225;-53
2022/08/23 00:28:28;;;;;;;327.65;174.23;;;;;;;;;;4987219;28;20267;-53
2022/08/23 00:30:54;;;;;;;325.00;176.95;;;;;;;;;;4988891;28;20213;-54
2022/08/23 00:33:20;;;;;;;307.25;164.40;;;;;;;;;;4989177;28;20231;-54
2022/08/23 00:35:46;;;;;;;309.67;164.20;;;;;;;;;;4988579;28;20292;-53
2022/08/23 00:38:12;;;;;;;303.40;163.15;;;;;;;;;;4989310;28;20320;-54
2022/08/23 00:40:38;;;;;;;328.88;173.80;;;;;;;;;;4988537;28;20272;-52
2022/08/23 00:48:45;;;;;;;315.25;168.93;;;;;;;;;;4988892;28;20735;-54
2022/08/23 00:51:20;;;;;;;303.85;162.60;;;;;;;;;;4994287;28;20656;-53
2022/08/23 00:53:48;;;;;;;321.15;172.38;;;;;;;;;;4987696;28;20236;-53
2022/08/23 00:56:16;;;;;;;310.40;165.40;;;;;;;;;;4988539;28;20279;-53
2022/08/23 00:58:42;;;;;;;316.25;166.25;;;;;;;;;;4988347;28;20297;-53
2022/08/23 01:01:09;;;;;;;316.73;168.82;;;;;;;;;;4988716;28;20312;-53
2022/08/23 01:03:37;;;;;;;340.45;185.82;;;;;;;;;;4988602;28;20735;-54
2022/08/23 01:06:07;;;;;;;312.15;169.60;;;;;;;;;;4989203;28;20192;-53
2022/08/23 01:08:34;;;;;;;310.63;167.70;;;;;;;;;;4988311;28;20244;-54
2022/08/23 01:11:03;;;;;;;319.52;175.85;;;;;;;;;;4985035;28;20245;-53
2022/08/23 01:13:35;;;;;;;301.70;162.77;;;;;;;;;;4986710;28;20225;-53
2022/08/23 01:16:11;;;;;;;315.25;169.15;;;;;;;;;;4992401;28;20229;-54
2022/08/23 01:18:37;;;;;;;308.07;166.10;;;;;;;;;;4992518;28;20411;-54
2022/08/23 01:21:12;;;;;;;308.92;169.48;;;;;;;;;;4992326;28;20228;-53
2022/08/23 01:23:45;;;;;;;307.70;166.32;;;;;;;;;;4989945;28;20267;-53
2022/08/23 01:26:13;;;;;;;317.90;170.90;;;;;;;;;;4992118;28;20225;-52
2022/08/23 01:28:39;;;;;;;311.15;166.43;;;;;;;;;;4991244;28;20220;-52
2022/08/23 01:31:06;;;;;;;325.83;171.43;;;;;;;;;;4989417;28;20593;-52
2022/08/23 01:33:32;;;;;;;323.33;174.77;;;;;;;;;;4991951;28;20213;-53
2022/08/23 01:35:58;;;;;;;317.95;171.45;;;;;;;;;;4992648;28;20178;-52
2022/08/23 01:38:25;;;;;;;310.48;171.85;;;;;;;;;;4992186;28;20209;-53
2022/08/23 01:40:51;;;;;;;317.48;178.52;;;;;;;;;;4991802;28;20217;-52
2022/08/23 01:43:18;;;;;;;319.30;179.85;;;;;;;;;;4987542;28;20317;-53
2022/08/23 01:45:45;;;;;;;292.98;160.40;;;;;;;;;;4992162;28;20243;-53
2022/08/23 01:48:11;;;;;;;328.40;178.63;;;;;;;;;;4986489;28;20196;-53
2022/08/23 01:50:37;;;;;;;327.15;181.73;;;;;;;;;;4991555;28;20213;-53
2022/08/23 01:53:05;;;;;;;312.15;168.40;;;;;;;;;;4992108;28;20562;-53
2022/08/23 01:55:31;;;;;;;306.77;166.45;;;;;;;;;;4991611;28;20209;-53
2022/08/23 01:57:59;;;;;;;297.17;163.05;;;;;;;;;;4991868;28;20288;-54
2022/08/23 02:00:29;;;;;;;285.92;160.90;;;;;;;;;;4991809;28;20256;-54
2022/08/23 02:02:55;;;;;;;326.45;180.00;;;;;;;;;;4992310;28;20173;-53
2022/08/23 02:05:21;;;;;;;318.75;175.98;;;;;;;;;;4991515;28;20761;-54
2022/08/23 02:07:47;;;;;;;313.77;172.10;;;;;;;;;;4994463;28;20571;-53
2022/08/23 02:10:14;;;;;;;312.50;175.63;;;;;;;;;;4990914;28;20577;-53
2022/08/23 02:12:40;;;;;;;289.38;165.98;;;;;;;;;;4993575;28;20229;-54
2022/08/23 02:15:06;;;;;;;324.35;182.10;;;;;;;;;;4991334;28;20209;-54
2022/08/23 02:17:33;;;;;;;296.58;167.85;;;;;;;;;;4996991;28;20263;-54
2022/08/23 02:20:00;;;;;;;283.27;161.85;;;;;;;;;;4991827;28;20209;-54
2022/08/23 02:22:26;;;;;;;312.37;172.73;;;;;;;;;;4986542;28;20749;-52
2022/08/23 02:24:53;;;;;;;307.10;171.07;;;;;;;;;;4988318;28;20304;-53
2022/08/23 02:27:18;;;;;;;320.35;175.13;;;;;;;;;;4990773;28;20189;-55
2022/08/23 02:29:45;;;;;;;333.98;182.50;;;;;;;;;;4991379;28;20650;-52
2022/08/23 02:32:13;;;;;;;308.45;168.73;;;;;;;;;;4990861;28;20231;-52
2022/08/23 02:34:39;;;;;;;322.33;173.18;;;;;;;;;;4990851;28;20637;-52
2022/08/23 02:37:06;;;;;;;310.77;173.10;;;;;;;;;;4995060;28;20581;-53
2022/08/23 02:39:32;;;;;;;328.38;179.32;;;;;;;;;;4990666;28;20313;-53
2022/08/23 02:41:59;;;;;;;334.63;180.50;;;;;;;;;;4991595;28;20675;-53
2022/08/23 02:44:25;;;;;;;322.40;176.85;;;;;;;;;;4990544;28;20226;-52
2022/08/23 02:46:51;;;;;;;326.42;179.93;;;;;;;;;;4994605;28;20233;-52
2022/08/23 02:49:17;;;;;;;312.10;170.05;;;;;;;;;;4991301;28;20276;-52
2022/08/23 02:51:43;;;;;;;320.50;174.53;;;;;;;;;;4983578;28;20572;-53
2022/08/23 02:54:09;;;;;;;318.85;172.93;;;;;;;;;;4991043;28;20206;-52
2022/08/23 02:56:35;;;;;;;310.63;170.88;;;;;;;;;;4993779;28;20272;-51
2022/08/23 02:59:01;;;;;;;333.38;184.48;;;;;;;;;;4991010;28;20589;-53
2022/08/23 03:01:29;;;;;;;323.35;179.10;;;;;;;;;;4990783;28;20220;-53
2022/08/23 03:03:55;;;;;;;298.90;169.37;;;;;;;;;;4986205;28;20213;-52
2022/08/23 03:06:21;;;;;;;319.45;178.27;;;;;;;;;;4983193;28;20235;-53
2022/08/23 03:08:47;;;;;;;333.73;183.52;;;;;;;;;;4981194;28;20570;-52
2022/08/23 03:11:15;;;;;;;308.02;173.45;;;;;;;;;;4985508;28;20221;-52
2022/08/23 03:13:42;;;;;;;319.52;178.57;;;;;;;;;;4986830;28;20352;-51
2022/08/23 03:16:08;;;;;;;310.88;171.00;;;;;;;;;;4990641;28;20704;-52
2022/08/23 03:18:35;;;;;;;329.55;185.15;;;;;;;;;;4986926;28;20280;-52
2022/08/23 03:21:01;;;;;;;337.15;186.32;;;;;;;;;;4990881;28;20726;-52
2022/08/23 03:23:28;;;;;;;334.02;182.40;;;;;;;;;;5004611;23;20312;-48
2022/08/23 03:25:54;;;;;;;331.60;179.82;;;;;;;;;;4990564;28;20280;-49
2022/08/23 03:28:20;;;;;;;331.83;184.30;;;;;;;;;;4982624;28;20218;-49
2022/08/23 03:30:46;;;;;;;334.15;183.43;;;;;;;;;;4990324;28;20217;-48
2022/08/23 03:33:12;;;;;;;324.67;177.57;;;;;;;;;;4995209;28;20263;-48
2022/08/23 03:35:37;;;;;;;333.33;179.82;;;;;;;;;;4990036;28;20267;-48
2022/08/23 03:38:03;;;;;;;336.10;183.45;;;;;;;;;;4990250;28;20213;-48
2022/08/23 03:40:29;;;;;;;328.95;179.60;;;;;;;;;;4986647;28;20371;-49
2022/08/23 03:42:55;;;;;;;329.00;180.50;;;;;;;;;;4990277;28;20217;-49
2022/08/23 03:45:21;;;;;;;332.03;181.70;;;;;;;;;;4980073;28;20186;-49
2022/08/23 03:47:47;;;;;;;339.65;185.55;;;;;;;;;;4983850;28;20218;-48
2022/08/23 03:50:13;;;;;;;323.90;178.55;;;;;;;;;;4979680;28;20248;-49
2022/08/23 03:52:39;;;;;;;339.98;184.45;;;;;;;;;;4990123;28;20229;-49
2022/08/23 03:55:05;;;;;;;325.98;178.88;;;;;;;;;;4989893;28;20232;-48
2022/08/23 03:57:31;;;;;;;326.13;182.73;;;;;;;;;;4990066;28;20181;-48
2022/08/23 03:59:58;;;;;;;328.38;181.57;;;;;;;;;;4989939;28;20193;-48
2022/08/23 04:02:24;;;;;;;322.85;180.73;;;;;;;;;;4989854;28;20224;-48
2022/08/23 04:04:50;;;;;;;339.35;191.82;;;;;;;;;;4989151;28;20218;-49
2022/08/23 04:07:20;;;;;;;337.30;186.95;;;;;;;;;;4989398;28;20296;-49
2022/08/23 04:09:46;;;;;;;321.35;182.55;;;;;;;;;;4978585;28;20700;-48
2022/08/23 04:12:12;;;;;;;311.95;178.00;;;;;;;;;;4988457;28;20205;-49
2022/08/23 04:14:38;;;;;;;310.20;177.43;;;;;;;;;;4987096;28;20221;-49
2022/08/23 04:17:04;;;;;;;323.33;185.18;;;;;;;;;;4989026;28;20296;-48
2022/08/23 04:19:31;;;;;;;329.92;185.77;;;;;;;;;;4980858;28;20216;-49
2022/08/23 04:21:57;;;;;;;324.10;180.00;;;;;;;;;;4989524;28;20574;-49
2022/08/23 04:24:23;;;;;;;308.92;172.88;;;;;;;;;;4988994;28;20201;-48
2022/08/23 04:26:49;;;;;;;330.95;183.27;;;;;;;;;;4989492;28;20178;-48
2022/08/23 04:29:16;;;;;;;336.08;185.02;;;;;;;;;;4980078;28;20220;-48
2022/08/23 04:31:42;;;;;;;341.25;187.50;;;;;;;;;;4969751;28;20581;-49
2022/08/23 04:34:08;;;;;;;306.33;174.40;;;;;;;;;;4975881;28;20411;-49
2022/08/23 04:36:39;;;;;;;323.02;181.77;;;;;;;;;;4986675;28;20436;-48
2022/08/23 04:39:05;;;;;;;315.63;178.00;;;;;;;;;;4992672;28;20177;-48
2022/08/23 04:44:16;;;;;;;323.13;181.55;;;;;;;;;;4975949;28;20286;-49
2022/08/23 04:46:42;;;;;;;314.30;177.57;;;;;;;;;;4989177;28;20701;-49
2022/08/23 04:49:09;;;;;;;305.35;174.95;;;;;;;;;;4988503;28;20300;-49
2022/08/23 04:51:35;;;;;;;335.00;187.20;;;;;;;;;;4987929;28;20586;-49
2022/08/23 04:54:01;;;;;;;329.83;185.68;;;;;;;;;;4982464;28;20292;-49
2022/08/23 04:56:27;;;;;;;333.73;177.55;;;;;;;;;;4987684;28;20248;-48
2022/08/23 04:58:53;;;;;;;317.42;168.38;;;;;;;;;;4989007;28;20704;-48
2022/08/23 05:01:19;;;;;;;385.27;209.70;;;;;;;;;;4988549;28;20217;-48
2022/08/23 05:03:45;;;;;;;316.83;171.88;;;;;;;;;;4983507;28;20237;-49
2022/08/23 05:06:11;;;;;;;323.05;174.00;;;;;;;;;;4984293;28;20229;-48
2022/08/23 05:08:37;;;;;;;316.58;168.80;;;;;;;;;;4983241;28;20267;-48
2022/08/23 05:11:04;;;;;;;325.02;181.93;;;;;;;;;;4988712;28;20217;-49
2022/08/23 05:13:30;;;;;;;329.58;185.88;;;;;;;;;;4988822;28;20578;-49
2022/08/23 05:15:56;;;;;;;318.40;173.93;;;;;;;;;;4988567;28;20221;-49
2022/08/23 05:18:23;;;;;;;341.70;188.98;;;;;;;;;;4980882;28;20586;-49
2022/08/23 05:20:49;;;;;;;330.48;185.68;;;;;;;;;;4983254;28;20666;-49
2022/08/23 05:23:15;;;;;;;324.45;174.30;;;;;;;;;;4989037;28;20233;-49
2022/08/23 05:25:51;;;;;;;316.63;170.70;;;;;;;;;;4985491;28;20693;-49
2022/08/23 05:28:18;;;;;;;329.48;178.77;;;;;;;;;;4989150;28;20213;-49
2022/08/23 05:30:44;;;;;;;345.73;187.48;;;;;;;;;;4988169;28;20217;-51
2022/08/23 05:33:11;;;;;;;345.88;196.70;;;;;;;;;;4980454;28;20214;-50
2022/08/23 05:35:38;;;;;;;348.27;195.27;;;;;;;;;;4977960;28;20218;-51
2022/08/23 05:38:04;;;;;;;344.83;197.18;;;;;;;;;;4985228;28;20214;-51
2022/08/23 05:40:30;;;;;;;346.73;196.65;;;;;;;;;;4980572;28;20669;-51
2022/08/23 05:42:56;;;;;;;373.98;210.43;;;;;;;;;;4991353;28;20213;-51
2022/08/23 05:45:22;;;;;;;356.67;201.13;;;;;;;;;;4980048;28;20205;-51
2022/08/23 05:47:48;;;;;;;349.15;200.02;;;;;;;;;;4989224;28;20193;-51
2022/08/23 05:50:14;;;;;;;335.48;192.23;;;;;;;;;;4987658;28;20224;-51
2022/08/23 05:52:40;;;;;;;348.60;197.85;;;;;;;;;;4987440;28;20225;-51
2022/08/23 05:55:07;;;;;;;363.77;204.10;;;;;;;;;;4986997;28;20214;-51
2022/08/23 05:57:37;;;;;;;364.13;208.35;;;;;;;;;;4988015;28;20232;-51
2022/08/23 06:00:14;;;;;;;341.40;192.68;;;;;;;;;;4968579;28;20178;-51
2022/08/23 06:02:40;;;;;;;351.55;196.60;;;;;;;;;;4990713;28;20704;-51
2022/08/23 06:05:07;;;;;;;355.77;202.80;;;;;;;;;;4990133;28;20244;-51
2022/08/23 06:07:34;;;;;;;348.40;195.20;;;;;;;;;;4990542;28;20690;-51
2022/08/23 06:10:00;;;;;;;356.75;199.73;;;;;;;;;;4982982;28;20209;-51
2022/08/23 06:12:26;;;;;;;353.88;199.40;;;;;;;;;;4989440;28;20565;-51
2022/08/23 06:14:52;;;;;;;343.10;186.27;;;;;;;;;;4988043;28;20210;-51
2022/08/23 06:17:18;;;;;;;343.50;196.35;;;;;;;;;;4990519;28;20264;-50
2022/08/23 06:19:43;;;;;;;361.85;203.10;;;;;;;;;;4988620;28;20625;-50
2022/08/23 06:22:09;;;;;;;359.25;199.90;;;;;;;;;;4989512;28;20484;-48
2022/08/23 06:24:35;;;;;;;372.95;208.43;;;;;;;;;;4988866;28;20198;-48
2022/08/23 06:27:01;;;;;;;364.52;201.27;;;;;;;;;;4990703;28;20186;-49
2022/08/23 06:29:27;;;;;;;352.60;199.77;;;;;;;;;;4990152;28;20221;-48
2022/08/23 06:31:54;;;;;;;355.65;201.57;;;;;;;;;;4989713;28;20229;-48
2022/08/23 06:34:20;;;;;;;346.30;195.00;;;;;;;;;;4990266;28;20217;-49
2022/08/23 06:36:47;;;;;;;365.40;203.35;;;;;;;;;;4989368;28;20582;-48
2022/08/23 06:39:15;;;;;;;369.17;205.73;;;;;;;;;;4990191;28;20173;-48
2022/08/23 06:41:41;;;;;;;339.02;191.27;;;;;;;;;;4989924;28;20410;-49
2022/08/23 06:44:07;;;;;;;403.35;231.30;;;;;;;;;;4988744;28;20433;-50
2022/08/23 06:46:34;;;;;;;400.58;221.93;;;;;;;;;;4980573;28;20296;-52
2022/08/23 06:49:03;;;;;;;383.98;216.18;;;;;;;;;;4980946;28;20205;-51
2022/08/23 06:51:32;;;;;;;370.85;212.93;;;;;;;;;;4982580;28;20270;-51
2022/08/23 06:53:59;;;;;;;397.17;226.13;;;;;;;;;;4981062;28;20214;-51
2022/08/23 06:56:25;;;;;;;356.83;200.20;;;;;;;;;;4987314;28;20221;-52
2022/08/23 06:58:52;;;;;;;413.58;229.38;;;;;;;;;;4981333;28;20222;-52
2022/08/23 07:01:18;;;;;;;404.35;223.82;;;;;;;;;;4982173;28;20307;-52
2022/08/23 07:03:44;;;;;;;393.50;214.73;;;;;;;;;;4983247;28;20268;-52
2022/08/23 07:06:10;;;;;;;381.95;210.32;;;;;;;;;;4976374;28;20177;-51
2022/08/23 07:08:36;;;;;;;389.73;216.98;;;;;;;;;;4986665;28;20232;-51
2022/08/23 07:11:02;;;;;;;366.55;209.40;;;;;;;;;;4981314;28;20243;-52
2022/08/23 07:13:28;;;;;;;440.70;239.75;;;;;;;;;;4978441;28;20776;-51
2022/08/23 07:15:57;;;;;;;385.95;217.25;;;;;;;;;;4981241;28;20233;-52
2022/08/23 07:18:23;;;;;;;376.50;210.65;;;;;;;;;;4986415;28;20253;-51
2022/08/23 07:20:49;;;;;;;382.05;212.68;;;;;;;;;;4988417;28;20209;-51
2022/08/23 07:23:16;;;;;;;403.00;223.85;;;;;;;;;;4980966;28;20227;-52
2022/08/23 07:25:42;;;;;;;406.00;221.88;;;;;;;;;;4981640;28;20818;-51
2022/08/23 07:28:08;;;;;;;396.25;218.02;;;;;;;;;;4981091;28;20258;-51
2022/08/23 07:30:34;;;;;;;387.70;218.77;;;;;;;;;;4979886;28;20178;-51
2022/08/23 07:33:00;;;;;;;451.27;254.48;;;;;;;;;;4975741;28;20209;-52
2022/08/23 07:35:27;;;;;;;406.27;228.02;;;;;;;;;;4980127;28;20206;-51
2022/08/23 07:37:53;;;;;;;426.70;245.80;;;;;;;;;;4975909;28;20205;-52
2022/08/23 07:40:20;;;;;;;395.38;223.05;;;;;;;;;;4979229;28;20230;-51
2022/08/23 07:42:46;;;;;;;408.23;232.43;;;;;;;;;;4977581;28;20861;-50
2022/08/23 07:45:13;;;;;;;363.80;214.07;;;;;;;;;;4988646;28;20289;-51
2022/08/23 07:47:41;;;;;;;392.92;222.50;;;;;;;;;;4988308;28;20222;-50
2022/08/23 07:50:07;;;;;;;386.42;220.75;;;;;;;;;;4987169;28;20217;-50
2022/08/23 07:52:34;;;;;;;404.00;224.95;;;;;;;;;;4986879;28;20221;-50
2022/08/23 07:55:00;;;;;;;396.92;231.25;;;;;;;;;;4987028;28;20216;-50
2022/08/23 07:57:27;;;;;;;432.05;242.35;;;;;;;;;;4986128;28;20178;-50
2022/08/23 07:59:53;;;;;;;411.85;230.40;;;;;;;;;;4987590;28;20188;-50
2022/08/23 08:02:21;;;;;;;394.10;224.80;;;;;;;;;;4986616;28;20229;-50
2022/08/23 08:04:47;;;;;;;400.23;221.68;;;;;;;;;;4988157;28;20669;-50
2022/08/23 08:07:13;;;;;;;381.50;218.05;;;;;;;;;;4988165;28;20232;-50
2022/08/23 08:09:39;;;;;;;403.73;230.18;;;;;;;;;;4987933;28;20197;-51
2022/08/23 08:12:05;;;;;;;404.20;231.73;;;;;;;;;;4987177;28;20201;-50
2022/08/23 08:14:31;;;;;;;388.67;232.25;;;;;;;;;;4987487;28;20217;-50
2022/08/23 08:16:59;;;;;;;428.48;247.35;;;;;;;;;;4985961;28;20692;-50
2022/08/23 08:19:25;;;;;;;420.20;237.88;;;;;;;;;;4982682;28;20224;-50
2022/08/23 08:21:51;;;;;;;399.45;232.32;;;;;;;;;;4987373;28;20308;-51
2022/08/23 08:24:17;;;;;;;392.25;233.85;;;;;;;;;;4987477;28;20774;-50
2022/08/23 08:26:44;;;;;;;386.00;230.75;;;;;;;;;;4987293;28;20697;-50
2022/08/23 08:29:10;;;;;;;417.52;241.10;;;;;;;;;;4987129;28;20229;-50
2022/08/23 08:31:38;;;;;;;401.15;235.93;;;;;;;;;;4984891;28;20243;-51
2022/08/23 08:34:04;;;;;;;397.90;236.25;;;;;;;;;;4987098;28;20244;-50
2022/08/23 08:36:35;;;;;;;389.65;226.70;;;;;;;;;;4987753;28;20227;-50
2022/08/23 08:39:02;;;;;;;421.73;244.48;;;;;;;;;;4984949;28;20641;-52
2022/08/23 08:41:37;;;;;;;392.08;229.77;;;;;;;;;;4987411;28;20221;-50
2022/08/23 08:44:18;;;;;;;392.63;234.77;;;;;;;;;;4987051;28;20252;-50
2022/08/23 08:46:46;;;;;;;406.92;238.90;;;;;;;;;;4985812;28;20249;-50
2022/08/23 08:49:31;;;;;;;395.42;234.20;;;;;;;;;;4985848;28;20237;-51
2022/08/23 08:52:10;;;;;;;391.27;232.65;;;;;;;;;;4986753;28;20221;-50
2022/08/23 08:54:36;;;;;;;399.38;241.25;;;;;;;;;;4986926;28;20205;-50
2022/08/23 08:57:03;;;;;;;409.63;244.45;;;;;;;;;;4987516;28;20304;-50
2022/08/23 08:59:47;;;;;;;400.27;229.60;;;;;;;;;;4987252;28;20275;-50
2022/08/23 09:02:16;;;;;;;382.60;227.07;;;;;;;;;;4986956;28;20351;-51
2022/08/23 09:04:42;;;;;;;389.52;227.70;;;;;;;;;;4986913;28;20694;-50
2022/08/23 09:07:27;;;;;;;384.67;230.13;;;;;;;;;;4987208;28;20372;-50
2022/08/23 09:09:56;;;;;;;368.95;222.45;;;;;;;;;;4987148;28;20903;-50
2022/08/23 09:12:22;;;;;;;378.58;229.13;;;;;;;;;;4986623;28;20252;-50
2022/08/23 09:14:56;;;;;;;381.20;231.20;;;;;;;;;;4987065;28;20232;-50
2022/08/23 09:17:34;;;;;;;390.58;230.32;;;;;;;;;;4986933;28;20267;-50
2022/08/23 09:20:03;;;;;;;377.35;222.50;;;;;;;;;;4987456;28;20224;-51
2022/08/23 09:22:35;;;;;;;382.17;248.07;;;;;;;;;;5009331;23;20279;-74
2022/08/23 09:25:01;;;;;;;380.35;244.07;;;;;;;;;;4992988;28;20220;-76
2022/08/23 09:27:27;;;;;;;433.17;257.05;;;;;;;;;;4987967;28;20247;-74
2022/08/23 09:29:55;;;;;;;396.75;243.85;;;;;;;;;;4997212;28;20299;-74
2022/08/23 09:32:41;;;;;;;389.23;244.10;;;;;;;;;;4984971;28;20671;-74
2022/08/23 09:35:17;;;;;;;384.58;247.65;;;;;;;;;;4974906;28;20296;-76
2022/08/23 09:37:56;;;;;;;432.77;269.88;;;;;;;;;;4977917;28;20244;-75
2022/08/23 09:40:31;;;;;;;370.02;236.05;;;;;;;;;;4978376;28;20218;-75
2022/08/23 09:43:02;;;;;;;406.58;256.58;;;;;;;;;;4999992;28;20669;-75
2022/08/23 09:45:29;;;;;;;383.60;246.98;;;;;;;;;;4981179;28;20178;-75
2022/08/23 09:47:55;;;;;;;418.95;268.08;;;;;;;;;;4974931;28;20173;-75
2022/08/23 09:50:26;;;;;;;385.88;246.65;;;;;;;;;;4980109;28;20209;-76
2022/08/23 09:53:13;;;;;;;381.40;235.40;;;;;;;;;;4976638;28;20217;-75
2022/08/23 09:55:41;;;;;;;444.95;269.90;;;;;;;;;;4980163;28;20423;-76
2022/08/23 09:58:17;;;;;;;393.35;239.85;;;;;;;;;;4980870;28;20256;-76
2022/08/23 10:00:43;;;;;;;388.77;237.63;;;;;;;;;;4975690;28;20213;-75
2022/08/23 10:03:21;;;;;;;371.02;229.50;;;;;;;;;;4977004;28;20209;-75
2022/08/23 10:05:49;;;;;;;398.52;245.25;;;;;;;;;;4979086;28;20661;-75
2022/08/23 10:08:22;;;;;;;382.42;237.82;;;;;;;;;;4976287;28;20268;-78
2022/08/23 10:10:50;;;;;;;375.75;230.73;;;;;;;;;;4976991;28;20201;-79
2022/08/23 10:13:16;;;;;;;408.83;252.85;;;;;;;;;;4980458;28;20222;-82
2022/08/23 10:15:53;;;;;;;418.42;253.02;;;;;;;;;;4978714;28;20335;-80
2022/08/23 10:18:26;;;;;;;379.45;233.25;;;;;;;;;;4978849;28;20192;-77
2022/08/23 10:20:57;;;;;;;372.70;230.45;;;;;;;;;;4982930;28;20304;-81
2022/08/23 10:23:43;;;;;;;386.88;239.40;;;;;;;;;;4978208;28;20659;-71
2022/08/23 10:26:13;;;;;;;383.25;236.93;;;;;;;;;;4975461;28;20288;-72
2022/08/23 10:31:54;;;;;;;397.27;236.52;;;;;;;;;;4969804;28;20206;-70
2022/08/23 10:34:35;;;;;;;392.98;240.55;;;;;;;;;;4977275;28;20738;-71
2022/08/23 10:37:23;;;;;;;386.15;238.50;;;;;;;;;;4978453;28;20210;-76
2022/08/23 10:40:01;;;;;;;376.35;228.38;;;;;;;;;;4981242;28;20225;-78
2022/08/23 10:42:30;;;;;;;383.08;226.98;;;;;;;;;;4982509;28;20240;-77
2022/08/23 10:45:02;;;;;;;407.05;243.88;;;;;;;;;;4990882;28;20181;-80
2022/08/23 10:47:29;;;;;;;389.85;230.80;;;;;;;;;;4976464;28;20210;-76
2022/08/23 10:49:57;;;;;;;408.55;238.88;;;;;;;;;;4975873;28;20210;-76
2022/08/23 10:52:26;;;;;;;410.27;240.73;;;;;;;;;;4977618;28;20233;-78
2022/08/23 10:54:59;;;;;;;373.23;221.50;;;;;;;;;;4978529;28;20320;-77
2022/08/23 10:57:30;;;;;;;393.35;231.68;;;;;;;;;;4971003;28;20189;-79
2022/08/23 10:59:57;;;;;;;366.55;225.70;;;;;;;;;;4979386;28;20205;-77
2022/08/23 11:02:43;;;;;;;375.38;225.65;;;;;;;;;;4983270;28;20228;-75
2022/08/23 11:05:30;;;;;;;391.58;237.30;;;;;;;;;;4982397;28;21003;-77
2022/08/23 11:07:58;;;;;;;392.90;237.40;;;;;;;;;;4984828;28;20213;-76
2022/08/23 11:10:33;;;;;;;376.88;235.32;;;;;;;;;;4977778;28;20926;-75
2022/08/23 11:13:19;;;;;;;382.52;246.18;;;;;;;;;;4980990;28;20221;-79
2022/08/23 11:16:05;;;;;;;415.50;259.85;;;;;;;;;;4980256;28;20897;-79
2022/08/23 11:18:34;;;;;;;402.83;247.60;;;;;;;;;;4966906;28;20214;-81
2022/08/23 11:21:02;;;;;;;395.65;249.68;;;;;;;;;;4980799;28;20269;-80
2022/08/23 11:23:31;;;;;;;414.08;259.65;;;;;;;;;;4969379;28;20217;-76
2022/08/23 11:25:57;;;;;;;447.42;281.90;;;;;;;;;;4973805;28;20225;-76
2022/08/23 11:28:23;;;;;;;403.58;247.00;;;;;;;;;;4973403;28;20261;-76
2022/08/23 11:30:50;;;;;;;452.15;270.08;;;;;;;;;;4964561;28;20564;-76
2022/08/23 11:33:18;;;;;;;386.15;236.18;;;;;;;;;;4978426;28;20267;-76
2022/08/23 11:36:02;;;;;;;435.27;258.05;;;;;;;;;;4973401;28;20217;-77
2022/08/23 11:38:46;;;;;;;382.15;231.77;;;;;;;;;;4987668;28;20361;-76
2022/08/23 11:41:18;;;;;;;406.13;243.15;;;;;;;;;;4974405;28;20870;-76
2022/08/23 11:43:46;;;;;;;412.92;245.05;;;;;;;;;;4974892;28;20213;-76
2022/08/23 11:46:14;;;;;;;422.95;251.02;;;;;;;;;;4970113;28;20287;-75
2022/08/23 11:48:42;;;;;;;400.52;243.07;;;;;;;;;;4972340;28;20214;-77
2022/08/23 11:51:08;;;;;;;409.58;245.45;;;;;;;;;;4971384;28;20265;-78
2022/08/23 11:53:36;;;;;;;391.25;237.80;;;;;;;;;;4971858;28;20229;-76
2022/08/23 11:56:21;;;;;;;392.25;240.65;;;;;;;;;;4965964;28;20309;-76
2022/08/23 11:59:01;;;;;;;456.38;273.55;;;;;;;;;;4963294;28;20327;-72
2022/08/23 12:01:38;;;;;;;424.08;258.63;;;;;;;;;;4966784;28;21189;-72
2022/08/23 12:04:22;;;;;;;377.08;233.15;;;;;;;;;;4974425;28;20308;-73
2022/08/23 12:06:56;;;;;;;419.20;270.23;;;;;;;;;;4973886;28;20206;-72
2022/08/23 12:09:22;;;;;;;417.05;271.35;;;;;;;;;;4959714;28;20273;-70
2022/08/23 12:11:54;;;;;;;436.70;276.45;;;;;;;;;;4963627;28;20178;-71
2022/08/23 12:14:32;;;;;;;390.85;253.95;;;;;;;;;;4972000;28;20236;-73
2022/08/23 12:16:59;;;;;;;405.52;253.73;;;;;;;;;;4967489;28;20202;-70
2022/08/23 12:19:40;;;;;;;414.55;257.73;;;;;;;;;;4976683;28;20217;-70
2022/08/23 12:22:14;;;;;;;374.45;232.40;;;;;;;;;;4976112;28;20241;-69
2022/08/23 12:24:42;;;;;;;426.25;262.77;;;;;;;;;;4959727;28;20189;-70
2022/08/23 12:27:26;;;;;;;407.38;247.93;;;;;;;;;;4971646;28;20291;-69
2022/08/23 12:30:07;;;;;;;434.80;269.90;;;;;;;;;;4962000;28;20679;-70
2022/08/23 12:32:51;;;;;;;415.38;259.02;;;;;;;;;;4973391;28;20248;-71
2022/08/23 12:35:23;;;;;;;399.50;256.55;;;;;;;;;;4969434;28;21040;-71
2022/08/23 12:37:55;;;;;;;396.60;251.77;;;;;;;;;;4974627;28;20289;-71
2022/08/23 12:40:25;;;;;;;462.40;289.52;;;;;;;;;;4970644;28;20237;-71
2022/08/23 12:42:52;;;;;;;390.05;246.30;;;;;;;;;;4974368;28;20218;-70
2022/08/23 12:45:20;;;;;;;419.83;263.75;;;;;;;;;;4971916;28;20182;-69
2022/08/23 12:47:59;;;;;;;440.33;274.83;;;;;;;;;;4972368;28;20722;-71
2022/08/23 12:50:28;;;;;;;428.05;273.20;;;;;;;;;;4973356;28;20304;-70
2022/08/23 12:52:56;;;;;;;384.27;249.60;;;;;;;;;;4973685;28;20211;-70
2022/08/23 12:55:22;;;;;;;373.02;242.82;;;;;;;;;;4976169;28;20272;-69
2022/08/23 12:57:54;;;;;;;419.23;269.85;;;;;;;;;;4969496;28;20273;-70
2022/08/23 13:00:19;;;;;;;430.02;269.42;;;;;;;;;;4985275;28;20272;-70
2022/08/23 13:02:51;;;;;;;436.15;271.73;;;;;;;;;;4964426;28;20213;-69
2022/08/23 13:05:26;;;;;;;429.25;272.25;;;;;;;;;;4967451;28;20245;-70
2022/08/23 13:07:52;;;;;;;430.60;272.20;;;;;;;;;;4966273;28;20209;-70
2022/08/23 13:10:18;;;;;;;440.85;281.23;;;;;;;;;;4970129;28;20564;-69
2022/08/23 13:12:44;;;;;;;409.85;264.27;;;;;;;;;;4979323;28;20841;-70
2022/08/23 13:15:10;;;;;;;411.90;261.13;;;;;;;;;;4976066;28;20194;-71
2022/08/23 13:17:38;;;;;;;401.75;264.30;;;;;;;;;;4973003;28;20217;-69
2022/08/23 13:20:23;;;;;;;383.63;250.25;;;;;;;;;;4978676;28;20291;-70
2022/08/23 13:22:56;;;;;;;434.80;273.52;;;;;;;;;;4983466;28;20213;-71
2022/08/23 13:25:41;;;;;;;432.52;274.58;;;;;;;;;;4976992;28;20209;-70
2022/08/23 13:28:26;;;;;;;422.05;278.25;;;;;;;;;;4968967;28;20698;-70
2022/08/23 13:31:00;;;;;;;440.30;278.98;;;;;;;;;;4991469;28;20235;-70
2022/08/23 13:33:26;;;;;;;459.50;290.40;;;;;;;;;;4969018;28;20296;-70
2022/08/23 13:36:06;;;;;;;425.52;274.88;;;;;;;;;;4975891;28;20288;-70
2022/08/23 13:38:32;;;;;;;442.67;277.92;;;;;;;;;;4971301;28;20630;-70
2022/08/23 13:41:00;;;;;;;393.15;250.90;;;;;;;;;;4972547;28;20233;-70
2022/08/23 13:43:32;;;;;;;440.08;275.83;;;;;;;;;;4971547;28;20877;-70
2022/08/23 13:46:00;;;;;;;384.05;246.02;;;;;;;;;;4968106;28;20216;-64
2022/08/23 13:48:30;;;;;;;430.80;273.58;;;;;;;;;;4975233;28;20193;-65
2022/08/23 13:51:16;;;;;;;386.63;248.15;;;;;;;;;;4974056;28;20178;-63
2022/08/23 13:53:42;;;;;;;409.38;262.73;;;;;;;;;;4976305;28;20703;-63
2022/08/23 13:56:08;;;;;;;450.05;284.27;;;;;;;;;;4973600;28;20225;-63
2022/08/23 13:58:34;;;;;;;391.83;254.15;;;;;;;;;;4977457;28;20229;-63
2022/08/23 14:01:01;;;;;;;407.02;261.40;;;;;;;;;;4972266;28;20225;-65
2022/08/23 14:03:28;;;;;;;404.38;259.00;;;;;;;;;;4975080;28;20291;-63
2022/08/23 14:05:54;;;;;;;408.00;261.02;;;;;;;;;;4980617;28;20205;-63
2022/08/23 14:08:20;;;;;;;449.13;284.73;;;;;;;;;;4968610;28;20224;-63
2022/08/23 14:10:46;;;;;;;478.73;302.23;;;;;;;;;;4970560;28;20265;-63
2022/08/23 14:13:13;;;;;;;414.73;286.90;;;;;;;;;;4973984;28;20233;-63